createdAt,value
2023-03-26T00:00:54.355Z,96177.81
2023-03-26T00:03:21.046Z,96145.22
2023-03-26T00:05:50.680Z,96105.66
2023-03-26T00:08:17.714Z,96060.41
2023-03-26T00:10:45.021Z,95980.16
2023-03-26T00:13:11.486Z,95991.59
2023-03-26T00:15:38.064Z,95963.63
2023-03-26T00:18:04.583Z,95936.53
2023-03-26T00:20:32.854Z,95918.97
2023-03-26T00:23:02.528Z,95879.56
2023-03-26T00:25:30.304Z,95880.00
2023-03-26T00:27:57.311Z,95853.41
2023-03-26T00:30:23.967Z,95891.56
2023-03-26T00:32:53.670Z,95921.31
2023-03-26T00:35:20.922Z,95941.34
2023-03-26T00:37:47.965Z,95952.38
2023-03-26T00:40:14.629Z,95999.41
2023-03-26T00:42:42.534Z,96029.75
2023-03-26T00:45:09.744Z,96023.19
2023-03-26T00:47:36.484Z,95997.66
2023-03-26T00:50:04.355Z,95966.50
2023-03-26T00:52:31.756Z,95920.06
2023-03-26T00:54:58.315Z,95879.78
2023-03-26T00:57:35.511Z,95855.75
2023-03-26T01:00:08.871Z,95822.25
2023-03-26T01:02:35.509Z,95787.03
2023-03-26T01:05:34.324Z,95772.91
2023-03-26T01:08:25.647Z,95729.66
2023-03-26T01:11:02.992Z,95721.75
2023-03-26T01:13:38.959Z,95681.88
2023-03-26T01:16:20.713Z,95710.66
2023-03-26T01:18:48.658Z,95677.88
2023-03-26T01:21:22.879Z,95654.03
2023-03-26T01:24:06.780Z,95624.50
2023-03-26T01:26:48.284Z,95605.13
2023-03-26T01:29:39.570Z,95575.59
2023-03-26T01:32:44.187Z,95525.44
2023-03-26T01:35:17.555Z,95501.19
2023-03-26T01:37:47.001Z,95451.06
2023-03-26T01:40:43.281Z,95388.97
2023-03-26T01:43:46.456Z,95367.78
2023-03-26T01:46:15.898Z,95323.94
2023-03-26T01:48:45.369Z,95282.13
2023-03-26T01:51:14.048Z,95272.38
2023-03-26T01:53:45.406Z,95263.91
2023-03-26T01:56:17.825Z,95275.66
2023-03-26T01:59:04.738Z,95252.59
2023-03-26T02:02:01.242Z,95274.44
2023-03-26T02:04:43.306Z,95317.25
2023-03-26T02:07:28.868Z,95403.78
2023-03-26T02:10:02.221Z,95439.97
2023-03-26T02:12:30.009Z,95475.13
2023-03-26T02:15:00.179Z,95510.31
2023-03-26T02:17:30.142Z,95550.31
2023-03-26T02:19:57.050Z,95548.88
2023-03-26T02:22:29.734Z,95530.09
2023-03-26T02:24:56.156Z,95529.06
2023-03-26T02:27:22.812Z,95567.25
2023-03-26T02:29:50.478Z,95555.72
2023-03-26T02:32:19.450Z,95563.41
2023-03-26T02:34:47.484Z,95551.66
2023-03-26T02:37:14.040Z,95562.34
2023-03-26T02:39:40.748Z,95573.28
2023-03-26T02:42:07.196Z,95567.84
2023-03-26T02:44:33.621Z,95576.91
2023-03-26T02:47:00.279Z,95577.91
2023-03-26T02:49:27.275Z,95567.03
2023-03-26T02:51:56.267Z,95586.00
2023-03-26T02:54:23.249Z,95593.50
2023-03-26T02:56:49.859Z,95608.44
2023-03-26T02:59:16.344Z,95607.41
2023-03-26T03:01:43.402Z,95626.00
2023-03-26T03:04:10.992Z,95623.16
2023-03-26T03:06:38.450Z,95624.78
2023-03-26T03:09:08.603Z,95630.44
2023-03-26T03:11:35.969Z,95622.16
2023-03-26T03:14:02.562Z,95626.22
2023-03-26T03:16:29.184Z,95623.16
2023-03-26T03:18:58.124Z,95617.94
2023-03-26T03:21:27.202Z,95611.06
2023-03-26T03:23:55.014Z,95609.84
2023-03-26T03:26:28.142Z,95620.78
2023-03-26T03:28:58.586Z,95603.81
2023-03-26T03:31:26.560Z,95600.78
2023-03-26T03:33:53.200Z,95606.22
2023-03-26T03:36:22.667Z,95596.72
2023-03-26T03:38:50.012Z,95596.34
2023-03-26T03:41:21.696Z,95583.19
2023-03-26T03:43:48.185Z,95547.41
2023-03-26T03:46:14.746Z,95567.03
2023-03-26T03:48:41.177Z,95553.72
2023-03-26T03:51:07.940Z,95548.28
2023-03-26T03:53:37.247Z,95556.53
2023-03-26T03:56:10.502Z,95555.34
2023-03-26T03:58:37.475Z,95554.53
2023-03-26T04:01:04.703Z,95556.97
2023-03-26T04:03:33.851Z,95561.00
2023-03-26T04:06:01.354Z,95579.41
2023-03-26T04:08:28.221Z,95596.19
2023-03-26T04:10:54.856Z,95589.72
2023-03-26T04:13:21.564Z,95623.69
2023-03-26T04:15:48.161Z,95638.41
2023-03-26T04:18:14.658Z,95654.78
2023-03-26T04:20:46.483Z,95654.56
2023-03-26T04:23:14.331Z,95687.94
2023-03-26T04:25:44.625Z,95714.41
2023-03-26T04:28:26.458Z,95735.22
2023-03-26T04:30:55.412Z,95754.19
2023-03-26T04:33:25.068Z,95782.09
2023-03-26T04:35:51.862Z,95798.25
2023-03-26T04:38:18.601Z,95809.97
2023-03-26T04:40:47.476Z,95806.06
2023-03-26T04:43:18.443Z,95811.94
2023-03-26T04:45:48.242Z,95804.69
2023-03-26T04:48:14.780Z,95803.41
2023-03-26T04:50:46.571Z,95795.72
2023-03-26T04:53:19.271Z,95785.97
2023-03-26T04:56:06.434Z,95792.44
2023-03-26T04:58:34.170Z,95781.91
2023-03-26T05:01:10.123Z,95774.56
2023-03-26T05:03:41.284Z,95762.81
2023-03-26T05:06:10.960Z,95743.56
2023-03-26T05:08:39.129Z,95684.91
2023-03-26T05:11:14.572Z,95688.66
2023-03-26T05:13:42.869Z,95705.84
2023-03-26T05:16:11.036Z,95700.91
2023-03-26T05:18:37.658Z,95675.38
2023-03-26T05:21:04.437Z,95676.22
2023-03-26T05:23:31.124Z,95663.09
2023-03-26T05:25:57.593Z,95662.81
2023-03-26T05:28:25.482Z,95648.34
2023-03-26T05:30:53.288Z,95637.53
2023-03-26T05:33:21.088Z,95649.25
2023-03-26T05:35:49.491Z,95645.19
2023-03-26T05:38:20.841Z,95622.44
2023-03-26T05:40:47.981Z,95664.75
2023-03-26T05:43:14.993Z,95674.28
2023-03-26T05:45:41.497Z,95671.06
2023-03-26T05:48:08.034Z,95673.16
2023-03-26T05:50:34.663Z,95673.16
2023-03-26T05:53:01.099Z,95660.19
2023-03-26T05:55:27.789Z,95657.22
2023-03-26T05:57:54.218Z,95656.41
2023-03-26T06:00:20.756Z,95672.00
2023-03-26T06:02:51.311Z,95662.56
2023-03-26T06:05:37.417Z,95637.59
2023-03-26T06:08:04.241Z,95695.25
2023-03-26T06:10:30.960Z,95697.88
2023-03-26T06:12:57.478Z,95728.13
2023-03-26T06:15:24.135Z,95738.84
2023-03-26T06:17:52.997Z,95722.41
2023-03-26T06:20:19.500Z,95734.41
2023-03-26T06:22:46.009Z,95737.44
2023-03-26T06:25:12.566Z,95738.69
2023-03-26T06:27:39.057Z,95735.47
2023-03-26T06:30:06.895Z,95739.19
2023-03-26T06:32:38.498Z,95755.00
2023-03-26T06:35:09.081Z,95770.81
2023-03-26T06:37:36.035Z,95802.41
2023-03-26T06:40:02.752Z,95825.53
2023-03-26T06:43:06.342Z,95831.16
2023-03-26T06:45:15.995Z,95928.84
2023-03-26T06:47:42.537Z,95975.50
2023-03-26T06:50:11.527Z,96041.56
2023-03-26T06:52:38.168Z,96118.13
2023-03-26T06:55:08.631Z,96170.34
2023-03-26T06:57:35.340Z,96206.06
2023-03-26T07:00:02.385Z,96223.94
2023-03-26T07:02:28.925Z,96261.00
2023-03-26T07:04:55.740Z,96293.88
2023-03-26T07:07:24.070Z,96408.47
2023-03-26T07:09:51.706Z,96478.91
2023-03-26T07:12:18.222Z,96617.06
2023-03-26T07:14:47.676Z,96700.44
2023-03-26T07:17:14.222Z,96800.19
2023-03-26T07:19:40.739Z,96834.75
2023-03-26T07:22:07.548Z,96941.91
2023-03-26T07:24:34.306Z,97024.97
2023-03-26T07:27:15.131Z,97164.88
2023-03-26T07:30:07.224Z,97211.75
2023-03-26T07:32:55.950Z,97184.47
2023-03-26T07:35:51.660Z,97118.97
2023-03-26T07:38:28.138Z,97126.13
2023-03-26T07:41:10.865Z,97142.41
2023-03-26T07:43:52.748Z,97145.72
2023-03-26T07:46:25.960Z,97144.31
2023-03-26T07:48:55.030Z,97122.56
2023-03-26T07:51:21.986Z,97124.66
2023-03-26T07:53:49.639Z,97204.09
2023-03-26T07:56:34.036Z,97218.81
2023-03-26T07:59:23.453Z,97257.19
2023-03-26T08:02:21.515Z,97225.19
2023-03-26T08:05:20.263Z,97191.72
2023-03-26T08:08:10.065Z,97215.34
2023-03-26T08:11:22.447Z,97199.31
2023-03-26T08:14:25.152Z,97191.25
2023-03-26T08:16:57.012Z,97179.22
2023-03-26T08:19:40.785Z,97210.50
2023-03-26T08:22:29.271Z,97213.56
2023-03-26T08:25:17.777Z,97200.81
2023-03-26T08:28:11.212Z,97183.25
2023-03-26T08:30:37.806Z,97177.91
2023-03-26T08:33:12.689Z,97136.34
2023-03-26T08:35:42.799Z,97124.16
2023-03-26T08:38:14.815Z,97108.72
2023-03-26T08:41:03.549Z,97086.22
2023-03-26T08:43:53.333Z,97121.28
2023-03-26T08:46:43.318Z,97114.47
2023-03-26T08:49:26.688Z,97103.56
2023-03-26T08:52:12.449Z,97108.97
2023-03-26T08:54:47.622Z,97086.56
2023-03-26T08:57:33.220Z,97090.63
2023-03-26T09:00:22.103Z,97082.50
2023-03-26T09:03:07.735Z,97057.81
2023-03-26T09:05:48.009Z,97044.81
2023-03-26T09:08:54.427Z,97041.00
2023-03-26T09:11:32.531Z,97032.09
2023-03-26T09:14:05.203Z,97006.31
2023-03-26T09:16:47.066Z,97033.31
2023-03-26T09:19:57.490Z,96995.25
2023-03-26T09:23:12.639Z,96981.56
2023-03-26T09:25:58.817Z,96987.59
2023-03-26T09:28:46.001Z,97023.47
2023-03-26T09:32:11.860Z,97002.59
2023-03-26T09:35:00.554Z,96972.03
2023-03-26T09:37:56.079Z,96973.03
2023-03-26T09:40:29.791Z,96993.88
2023-03-26T09:43:14.478Z,96960.50
2023-03-26T09:45:53.160Z,96967.84
2023-03-26T09:48:26.102Z,96976.22
2023-03-26T09:51:36.109Z,96958.03
2023-03-26T09:54:26.012Z,96949.00
2023-03-26T09:57:07.475Z,96929.00
2023-03-26T09:59:47.443Z,96916.44
2023-03-26T10:02:45.877Z,96957.16
2023-03-26T10:05:44.623Z,96877.94
2023-03-26T10:08:22.551Z,96853.50
2023-03-26T10:11:08.114Z,96830.25
2023-03-26T10:13:50.020Z,96834.47
2023-03-26T10:16:38.774Z,96802.75
2023-03-26T10:19:17.988Z,96785.91
2023-03-26T10:21:57.432Z,96838.72
2023-03-26T10:24:39.495Z,96809.94
2023-03-26T10:27:20.267Z,96779.19
2023-03-26T10:30:14.675Z,96777.41
2023-03-26T10:32:59.696Z,96761.28
2023-03-26T10:35:35.264Z,96745.59
2023-03-26T10:38:18.995Z,96684.63
2023-03-26T10:41:05.066Z,96634.16
2023-03-26T10:44:08.358Z,96580.56
2023-03-26T10:46:58.937Z,96549.50
2023-03-26T10:49:52.225Z,96488.41
2023-03-26T10:52:23.743Z,96514.78
2023-03-26T10:55:12.062Z,96459.53
2023-03-26T10:57:53.008Z,96462.63
2023-03-26T11:00:26.440Z,96475.50
2023-03-26T11:03:02.026Z,96511.38
2023-03-26T11:05:43.634Z,96506.16
2023-03-26T11:08:35.484Z,96565.34
2023-03-26T11:11:25.017Z,96557.69
2023-03-26T11:14:04.624Z,96568.25
2023-03-26T11:16:57.133Z,96547.53
2023-03-26T11:19:32.180Z,96508.22
2023-03-26T11:22:23.766Z,96488.78
2023-03-26T11:25:12.112Z,96457.06
2023-03-26T11:27:45.346Z,96435.38
2023-03-26T11:30:45.455Z,96437.84
2023-03-26T11:33:26.756Z,96405.78
2023-03-26T11:36:08.709Z,96403.75
2023-03-26T11:38:43.634Z,96357.03
2023-03-26T11:41:23.066Z,96320.28
2023-03-26T11:43:55.418Z,96326.78
2023-03-26T11:46:25.223Z,96316.09
2023-03-26T11:49:00.305Z,96298.19
2023-03-26T11:51:33.697Z,96272.81
2023-03-26T11:54:01.277Z,96244.66
2023-03-26T11:56:33.917Z,96206.00
2023-03-26T11:59:27.338Z,96170.94
2023-03-26T12:02:17.890Z,96156.88
2023-03-26T12:04:51.779Z,96133.63
2023-03-26T12:07:18.269Z,96125.88
2023-03-26T12:09:56.371Z,96128.41
2023-03-26T12:12:34.446Z,96131.63
2023-03-26T12:15:01.183Z,96117.59
2023-03-26T12:17:32.783Z,96116.09
2023-03-26T12:20:00.899Z,96111.88
2023-03-26T12:22:37.886Z,96094.28
2023-03-26T12:25:20.465Z,96144.75
2023-03-26T12:28:06.757Z,96118.34
2023-03-26T12:30:39.547Z,96107.47
2023-03-26T12:33:15.180Z,96085.63
2023-03-26T12:35:42.808Z,96043.03
2023-03-26T12:38:35.815Z,96025.28
2023-03-26T12:42:08.856Z,96031.16
2023-03-26T12:44:55.849Z,96040.25
2023-03-26T12:47:57.319Z,96023.69
2023-03-26T12:49:26.703Z,95990.25
2023-03-26T12:51:58.695Z,95916.00
2023-03-26T12:54:36.229Z,95828.16
2023-03-26T12:57:23.929Z,95756.88
2023-03-26T13:00:20.231Z,95735.41
2023-03-26T13:02:59.138Z,95695.94
2023-03-26T13:05:58.277Z,95663.78
2023-03-26T13:08:43.408Z,95687.03
2023-03-26T13:11:30.755Z,95733.34
2023-03-26T13:14:16.163Z,95803.84
2023-03-26T13:16:57.064Z,95899.97
2023-03-26T13:19:28.923Z,95918.72
2023-03-26T13:22:14.045Z,95948.84
2023-03-26T13:24:55.082Z,95990.13
2023-03-26T13:27:42.262Z,96020.16
2023-03-26T13:30:12.074Z,96091.09
2023-03-26T13:33:11.995Z,96111.75
2023-03-26T13:36:06.567Z,96151.72
2023-03-26T13:39:03.574Z,96152.22
2023-03-26T13:41:57.235Z,96175.53
2023-03-26T13:44:29.544Z,96139.19
2023-03-26T13:47:04.357Z,96133.00
2023-03-26T13:49:40.737Z,96122.56
2023-03-26T13:52:09.956Z,96151.75
2023-03-26T13:54:50.145Z,96143.13
2023-03-26T13:57:49.471Z,96174.97
2023-03-26T14:00:22.730Z,96184.16
2023-03-26T14:03:03.536Z,96152.28
2023-03-26T14:06:00.900Z,96156.53
2023-03-26T14:08:39.486Z,96149.06
2023-03-26T14:11:16.522Z,96147.81
2023-03-26T14:14:00.612Z,96138.06
2023-03-26T14:16:38.315Z,96125.25
2023-03-26T14:19:41.238Z,96138.44
2023-03-26T14:22:27.997Z,96174.16
2023-03-26T14:25:14.186Z,96128.88
2023-03-26T14:28:06.093Z,96179.97
2023-03-26T14:30:40.463Z,96175.28
2023-03-26T14:33:28.017Z,96150.63
2023-03-26T14:36:42.448Z,96169.28
2023-03-26T14:39:26.446Z,96165.38
2023-03-26T14:41:56.795Z,96168.19
2023-03-26T14:44:48.645Z,96209.31
2023-03-26T14:47:19.507Z,96190.16
2023-03-26T14:50:09.028Z,96213.13
2023-03-26T14:52:49.105Z,96266.97
2023-03-26T14:55:24.228Z,96286.63
2023-03-26T14:58:23.580Z,96321.59
2023-03-26T15:01:09.070Z,96308.28
2023-03-26T15:04:12.547Z,96251.25
2023-03-26T15:07:08.973Z,96250.72
2023-03-26T15:09:54.755Z,96204.56
2023-03-26T15:12:33.546Z,96212.38
2023-03-26T15:15:12.391Z,96182.56
2023-03-26T15:18:18.475Z,96156.22
2023-03-26T15:21:06.945Z,96152.19
2023-03-26T15:23:58.680Z,96143.41
2023-03-26T15:26:53.491Z,96126.19
2023-03-26T15:29:32.118Z,96117.06
2023-03-26T15:32:41.488Z,96100.19
2023-03-26T15:35:11.340Z,96117.28
2023-03-26T15:37:41.467Z,96074.13
2023-03-26T15:40:43.115Z,96061.16
2023-03-26T15:43:13.089Z,96077.94
2023-03-26T15:45:53.901Z,96062.13
2023-03-26T15:49:09.620Z,96060.72
2023-03-26T15:51:47.020Z,96054.84
2023-03-26T15:54:39.534Z,96005.75
2023-03-26T15:57:42.876Z,95988.31
2023-03-26T16:00:34.645Z,96015.91
2023-03-26T16:03:10.193Z,96001.72
2023-03-26T16:06:11.623Z,96018.72
2023-03-26T16:09:04.957Z,96033.53
2023-03-26T16:11:53.749Z,96022.78
2023-03-26T16:14:36.208Z,96025.19
2023-03-26T16:17:06.661Z,96005.75
2023-03-26T16:19:49.687Z,95984.66
2023-03-26T16:22:43.323Z,95934.78
2023-03-26T16:25:34.769Z,95859.03
2023-03-26T16:28:12.208Z,95840.34
2023-03-26T16:30:43.587Z,95813.19
2023-03-26T16:33:21.387Z,95769.81
2023-03-26T16:36:21.315Z,95755.66
2023-03-26T16:38:54.797Z,95705.81
2023-03-26T16:41:27.481Z,95661.22
2023-03-26T16:44:13.792Z,95619.31
2023-03-26T16:47:06.832Z,95576.63
2023-03-26T16:50:08.395Z,95518.34
2023-03-26T16:52:45.435Z,95458.78
2023-03-26T16:55:35.111Z,95425.63
2023-03-26T16:58:03.216Z,95395.28
2023-03-26T17:00:40.629Z,95380.13
2023-03-26T17:03:28.129Z,95355.81
2023-03-26T17:05:56.484Z,95360.16
2023-03-26T17:08:42.624Z,95320.59
2023-03-26T17:11:15.463Z,95289.75
2023-03-26T17:14:03.632Z,95246.22
2023-03-26T17:16:38.038Z,95235.91
2023-03-26T17:19:19.154Z,95216.50
2023-03-26T17:22:05.944Z,95192.44
2023-03-26T17:24:42.826Z,95158.66
2023-03-26T17:27:34.179Z,95154.38
2023-03-26T17:30:32.790Z,95117.91
2023-03-26T17:33:02.392Z,95101.16
2023-03-26T17:35:46.932Z,95058.69
2023-03-26T17:38:25.351Z,95019.09
2023-03-26T17:40:59.754Z,95008.59
2023-03-26T17:43:52.430Z,94960.06
2023-03-26T17:46:35.051Z,94929.69
2023-03-26T17:49:11.938Z,94907.56
2023-03-26T17:52:02.330Z,94872.06
2023-03-26T17:54:41.255Z,94842.94
2023-03-26T17:57:17.742Z,94814.91
2023-03-26T17:59:45.688Z,94799.38
2023-03-26T18:02:16.737Z,94809.66
2023-03-26T18:04:48.599Z,94802.00
2023-03-26T18:08:11.317Z,94792.75
2023-03-26T18:11:15.317Z,94781.50
2023-03-26T18:13:56.918Z,94785.59
2023-03-26T18:16:51.518Z,94746.66
2023-03-26T18:19:27.070Z,94785.75
2023-03-26T18:21:56.937Z,94797.50
2023-03-26T18:24:26.700Z,94795.16
2023-03-26T18:27:15.695Z,94789.25
2023-03-26T18:29:46.709Z,94786.31
2023-03-26T18:32:13.362Z,94782.41
2023-03-26T18:34:50.088Z,94770.25
2023-03-26T18:37:40.155Z,94788.09
2023-03-26T18:40:12.576Z,94794.22
2023-03-26T18:42:41.440Z,94799.47
2023-03-26T18:45:20.819Z,94813.59
2023-03-26T18:47:52.202Z,94815.66
2023-03-26T18:50:26.099Z,94794.78
2023-03-26T18:52:53.295Z,94816.25
2023-03-26T18:55:20.056Z,94810.41
2023-03-26T18:57:51.613Z,94814.03
2023-03-26T19:00:23.611Z,94867.19
2023-03-26T19:02:58.853Z,94846.03
2023-03-26T19:05:28.459Z,94848.84
2023-03-26T19:07:56.296Z,94847.13
2023-03-26T19:10:25.138Z,94849.53
2023-03-26T19:13:00.186Z,94842.38
2023-03-26T19:15:30.456Z,94840.69
2023-03-26T19:18:06.999Z,94847.19
2023-03-26T19:20:42.350Z,94856.25
2023-03-26T19:23:35.029Z,94848.41
2023-03-26T19:26:06.502Z,94849.09
2023-03-26T19:28:42.452Z,94870.84
2023-03-26T19:31:15.901Z,94868.81
2023-03-26T19:33:43.978Z,94876.59
2023-03-26T19:36:13.788Z,94888.78
2023-03-26T19:39:04.868Z,94904.84
2023-03-26T19:41:36.587Z,94927.78
2023-03-26T19:44:18.637Z,94934.47
2023-03-26T19:46:52.981Z,94942.63
2023-03-26T19:49:32.121Z,94957.94
2023-03-26T19:52:25.561Z,94970.72
2023-03-26T19:55:00.439Z,94986.66
2023-03-26T19:57:29.191Z,94975.03
2023-03-26T19:59:56.553Z,95005.06
2023-03-26T20:02:23.166Z,95021.81
2023-03-26T20:04:50.532Z,95031.84
2023-03-26T20:07:35.825Z,95042.00
2023-03-26T20:10:05.564Z,95025.84
2023-03-26T20:12:32.791Z,95065.88
2023-03-26T20:15:00.191Z,95061.94
2023-03-26T20:17:27.182Z,95080.31
2023-03-26T20:19:54.692Z,95080.75
2023-03-26T20:22:21.346Z,95087.78
2023-03-26T20:24:48.128Z,95120.00
2023-03-26T20:27:14.964Z,95132.53
2023-03-26T20:29:42.292Z,95136.22
2023-03-26T20:32:27.733Z,95153.06
2023-03-26T20:34:55.249Z,95163.47
2023-03-26T20:37:21.718Z,95185.91
2023-03-26T20:39:48.577Z,95185.50
2023-03-26T20:42:16.175Z,95204.13
2023-03-26T20:44:42.997Z,95222.13
2023-03-26T20:47:12.823Z,95229.00
2023-03-26T20:49:40.309Z,95244.19
2023-03-26T20:52:06.996Z,95253.47
2023-03-26T20:54:33.593Z,95280.13
2023-03-26T20:57:00.213Z,95289.44
2023-03-26T20:59:28.140Z,95297.16
2023-03-26T21:02:01.419Z,95314.09
2023-03-26T21:04:27.991Z,95324.63
2023-03-26T21:07:07.261Z,95321.41
2023-03-26T21:09:44.430Z,95343.59
2023-03-26T21:12:34.129Z,95371.50
2023-03-26T21:17:28.452Z,95299.63
2023-03-26T21:19:58.104Z,95397.75
2023-03-26T21:22:54.359Z,95411.06
2023-03-26T21:25:39.320Z,95419.56
2023-03-26T21:28:12.624Z,95429.88
2023-03-26T21:30:40.018Z,95439.16
2023-03-26T21:33:06.715Z,95456.34
2023-03-26T21:35:34.821Z,95407.84
2023-03-26T21:38:06.764Z,95466.81
2023-03-26T21:40:34.279Z,95469.84
2023-03-26T21:43:03.965Z,95489.03
2023-03-26T21:45:30.922Z,95491.06
2023-03-26T21:47:57.717Z,95526.13
2023-03-26T21:50:24.592Z,95534.41
2023-03-26T21:52:51.714Z,95549.91
2023-03-26T21:55:21.835Z,95569.25
2023-03-26T21:58:12.650Z,95592.25
2023-03-26T22:01:16.846Z,95549.94
2023-03-26T22:04:02.287Z,95608.28
2023-03-26T22:06:37.268Z,95609.97
2023-03-26T22:09:04.734Z,95626.47
2023-03-26T22:11:31.171Z,95646.59
2023-03-26T22:13:57.621Z,95661.13
2023-03-26T22:16:26.758Z,95669.81
2023-03-26T22:18:53.883Z,95684.47
2023-03-26T22:21:20.523Z,95694.91
2023-03-26T22:23:52.719Z,95712.69
2023-03-26T22:26:23.202Z,95715.31
2023-03-26T22:28:50.578Z,95734.13
2023-03-26T22:31:17.621Z,95742.94
2023-03-26T22:33:44.661Z,95762.38
2023-03-26T22:36:22.722Z,95768.03
2023-03-26T22:38:53.590Z,95745.28
2023-03-26T22:41:21.609Z,95770.25
2023-03-26T22:43:48.644Z,95783.34
2023-03-26T22:46:15.367Z,95783.34
2023-03-26T22:48:41.908Z,95800.72
2023-03-26T22:51:10.305Z,95804.31
2023-03-26T22:53:37.156Z,95819.78
2023-03-26T22:56:04.220Z,95823.94
2023-03-26T22:58:30.941Z,95839.16
2023-03-26T23:01:09.300Z,95842.50
2023-03-26T23:03:37.161Z,95844.41
2023-03-26T23:06:07.977Z,95848.16
2023-03-26T23:08:37.379Z,95851.81
2023-03-26T23:11:13.637Z,95864.81
2023-03-26T23:13:41.640Z,95858.00
2023-03-26T23:16:10.161Z,95867.88
2023-03-26T23:18:37.888Z,95888.69
2023-03-26T23:21:12.032Z,95884.63
2023-03-26T23:23:39.782Z,95890.28
2023-03-26T23:26:07.033Z,95904.31
2023-03-26T23:28:34.677Z,95920.22
2023-03-26T23:31:04.346Z,95926.53
2023-03-26T23:33:35.210Z,95923.81
2023-03-26T23:36:08.684Z,95939.09
2023-03-26T23:38:43.857Z,95937.91
2023-03-26T23:41:15.272Z,95933.69
2023-03-26T23:43:54.192Z,95955.47
2023-03-26T23:46:30.378Z,95956.34
2023-03-26T23:48:59.838Z,95965.28
2023-03-26T23:51:26.866Z,95977.38
2023-03-26T23:53:54.031Z,96002.03
2023-03-26T23:56:21.219Z,96006.03
2023-03-26T23:58:48.939Z,96018.28
